Terminal Aerodrome Forecast
Issued by NWS Tuscon, AZ

Home | Current Version | Previous Version | Text Only | Print | Product List | Glossary On
Versions: 1 2 3 4 5 6 7 8 9 10 11 12
000
FTUS45 KTWC 031139
TAFDUG
TAF
KDUG 031139Z 0312/0412 VRB03KT P6SM SCT100 BKN200
     FM031700 28005KT P6SM SCT080
     FM032100 30006KT P6SM VCSH SCT070 BKN110
     FM040100 35007KT P6SM SCT110 BKN180
     FM040800 VRB04KT P6SM BKN200=

USA.gov is the U.S. government's official web portal to all federal, state and local government web resources and services.